Station History

Weather Underground - logo

Station Historical Data
Daily Summary for February 4, 2018 Units:  English    Metric   Both
« Previous Day
Next Day »
Daily Weekly Monthly Yearly Custom
  High: Low: Average:
Temperature: 74.2 °F 43.2 °F 57.6 °F
Dew Point: 54.9 °F 41.3 °F 49.4 °F
Humidity: 95 % 46 % 77 %
Wind Speed: 3.5 mph 0.0 mph 0.4 mph
Wind Gust: 3.5 mph - -
Wind:- - WNW
Pressure: 30.15 in 30.03 in -
Precipitation: 0.00 in    
Historical Graphs
 
 
Tabular Data for February 4, 2018
Time Temperature Dew Point Pressure Wind Wind Speed Wind Gust Humidity Rainfall Rate (Hourly)
00:02 47.2 °F 44.4 °F 30.13 in Calm     90 % 0.00 in
00:07 47.0 °F 44.2 °F 30.13 in Calm     90 % 0.00 in
00:12 46.8 °F 44.0 °F 30.13 in Calm     90 % 0.00 in
00:17 46.6 °F 43.8 °F 30.13 in Calm     90 % 0.00 in
00:22 46.4 °F 43.6 °F 30.13 in Calm     90 % 0.00 in
00:27 46.5 °F 44.0 °F 30.13 in Calm     91 % 0.00 in
00:32 46.5 °F 44.0 °F 30.13 in Calm     91 % 0.00 in
00:37 46.4 °F 43.9 °F 30.12 in Calm     91 % 0.00 in
00:42 46.2 °F 43.4 °F 30.12 in Calm     90 % 0.00 in
00:47 46.0 °F 43.2 °F 30.12 in Calm     90 % 0.00 in
00:52 46.0 °F 43.5 °F 30.12 in Calm     91 % 0.00 in
00:57 46.0 °F 43.5 °F 30.12 in Calm     91 % 0.00 in
01:02 46.0 °F 43.5 °F 30.12 in Calm     91 % 0.00 in
01:07 46.2 °F 44.0 °F 30.12 in Calm     92 % 0.00 in
01:12 46.6 °F 44.7 °F 30.12 in Calm     93 % 0.00 in
01:17 46.9 °F 45.0 °F 30.12 in Calm     93 % 0.00 in
01:22 46.7 °F 44.2 °F 30.12 in Calm     91 % 0.00 in
01:27 46.1 °F 43.6 °F 30.12 in Calm     91 % 0.00 in
01:32 46.0 °F 43.5 °F 30.12 in Calm     91 % 0.00 in
01:37 46.0 °F 43.5 °F 30.12 in Calm     91 % 0.00 in
01:42 45.9 °F 43.7 °F 30.12 in Calm     92 % 0.00 in
01:47 46.1 °F 43.9 °F 30.12 in Calm     92 % 0.00 in
01:52 46.4 °F 44.5 °F 30.12 in Calm     93 % 0.00 in
01:57 46.7 °F 44.8 °F 30.12 in Calm     93 % 0.00 in
02:03 46.8 °F 44.9 °F 30.12 in Calm     93 % 0.00 in
02:07 46.8 °F 44.6 °F 30.13 in Calm     92 % 0.00 in
02:12 46.9 °F 45.0 °F 30.12 in Calm     93 % 0.00 in
02:18 46.9 °F 45.0 °F 30.12 in Calm     93 % 0.00 in
02:23 46.9 °F 45.0 °F 30.13 in Calm     93 % 0.00 in
02:28 46.7 °F 44.5 °F 30.12 in Calm     92 % 0.00 in
02:33 46.7 °F 44.8 °F 30.13 in Calm     93 % 0.00 in
02:38 46.7 °F 44.8 °F 30.13 in Calm     93 % 0.00 in
02:43 46.5 °F 44.3 °F 30.12 in Calm     92 % 0.00 in
02:48 45.9 °F 43.4 °F 30.12 in Calm     91 % 0.00 in
02:53 46.1 °F 44.2 °F 30.12 in Calm     93 % 0.00 in
02:58 46.5 °F 44.9 °F 30.12 in Calm     94 % 0.00 in
03:03 46.9 °F 45.3 °F 30.12 in Calm     94 % 0.00 in
03:08 47.2 °F 45.6 °F 30.12 in WNW 1.2 mph   94 % 0.00 in
03:13 47.7 °F 46.1 °F 30.12 in WNW 1.2 mph   94 % 0.00 in
03:18 48.3 °F 46.4 °F 30.11 in WNW 1.2 mph   93 % 0.00 in
03:23 48.7 °F 46.5 °F 30.11 in WNW 1.2 mph   92 % 0.00 in
03:28 49.1 °F 46.6 °F 30.11 in WNW 1.0 mph   91 % 0.00 in
03:33 49.5 °F 46.7 °F 30.11 in WNW 1.2 mph   90 % 0.00 in
03:38 49.7 °F 46.9 °F 30.11 in WNW 1.2 mph   90 % 0.00 in
03:43 49.9 °F 46.8 °F 30.11 in Calm     89 % 0.00 in
03:48 49.7 °F 46.3 °F 30.11 in WNW 1.2 mph   88 % 0.00 in
03:53 49.3 °F 45.9 °F 30.11 in Calm     88 % 0.00 in
03:58 48.8 °F 45.7 °F 30.11 in Calm     89 % 0.00 in
04:03 48.9 °F 46.1 °F 30.11 in North 1.0 mph 1.0 mph 90 % 0.00 in
04:08 49.0 °F 46.2 °F 30.11 in Calm     90 % 0.00 in
04:13 49.0 °F 46.2 °F 30.11 in Calm     90 % 0.00 in
04:18 49.1 °F 46.3 °F 30.11 in Calm     90 % 0.00 in
04:23 49.1 °F 46.3 °F 30.11 in Calm     90 % 0.00 in
04:28 49.0 °F 46.2 °F 30.11 in Calm     90 % 0.00 in
04:33 48.9 °F 46.1 °F 30.10 in Calm   0.1 mph 90 % 0.00 in
04:38 48.9 °F 46.1 °F 30.11 in NNW 1.2 mph 1.2 mph 90 % 0.00 in
04:43 48.9 °F 46.1 °F 30.10 in North 1.2 mph   90 % 0.00 in
04:48 48.8 °F 46.0 °F 30.11 in North 1.2 mph   90 % 0.00 in
04:53 48.3 °F 45.2 °F 30.11 in Calm     89 % 0.00 in
04:58 48.1 °F 45.3 °F 30.11 in Calm     90 % 0.00 in
05:03 47.3 °F 44.2 °F 30.11 in Calm     89 % 0.00 in
05:08 46.5 °F 43.4 °F 30.11 in Calm     89 % 0.00 in
05:13 45.9 °F 43.1 °F 30.11 in Calm     90 % 0.00 in
05:18 45.5 °F 42.7 °F 30.11 in Calm     90 % 0.00 in
05:23 45.3 °F 42.8 °F 30.11 in Calm     91 % 0.00 in
05:28 45.1 °F 42.6 °F 30.11 in Calm     91 % 0.00 in
05:33 44.8 °F 42.3 °F 30.11 in Calm     91 % 0.00 in
05:38 44.5 °F 42.3 °F 30.11 in Calm     92 % 0.00 in
05:43 44.5 °F 42.3 °F 30.11 in Calm     92 % 0.00 in
05:48 44.5 °F 42.6 °F 30.11 in Calm     93 % 0.00 in
05:53 44.4 °F 42.5 °F 30.11 in Calm     93 % 0.00 in
05:58 44.3 °F 42.4 °F 30.11 in Calm     93 % 0.00 in
06:03 44.2 °F 42.3 °F 30.11 in Calm     93 % 0.00 in
06:08 44.1 °F 42.2 °F 30.12 in Calm     93 % 0.00 in
06:13 44.0 °F 42.1 °F 30.12 in Calm     93 % 0.00 in
06:18 43.7 °F 41.8 °F 30.13 in Calm     93 % 0.00 in
06:23 43.3 °F 41.4 °F 30.13 in Calm     93 % 0.00 in
06:29 43.2 °F 41.3 °F 30.13 in Calm     93 % 0.00 in
06:34 43.2 °F 41.3 °F 30.13 in Calm     93 % 0.00 in
06:39 43.6 °F 42.0 °F 30.13 in Calm     94 % 0.00 in
06:44 43.8 °F 42.2 °F 30.13 in Calm     94 % 0.00 in
06:49 43.9 °F 42.3 °F 30.14 in Calm     94 % 0.00 in
06:54 43.9 °F 42.3 °F 30.14 in Calm     94 % 0.00 in
06:59 43.8 °F 42.2 °F 30.14 in Calm     94 % 0.00 in
07:04 43.8 °F 42.2 °F 30.14 in Calm     94 % 0.00 in
07:09 43.9 °F 42.3 °F 30.14 in Calm     94 % 0.00 in
07:14 44.1 °F 42.5 °F 30.14 in Calm     94 % 0.00 in
07:19 44.3 °F 43.0 °F 30.14 in Calm     95 % 0.00 in
07:24 44.5 °F 42.9 °F 30.15 in Calm     94 % 0.00 in
07:29 44.6 °F 43.0 °F 30.14 in Calm     94 % 0.00 in
07:34 44.5 °F 42.9 °F 30.15 in Calm     94 % 0.00 in
07:39 44.9 °F 43.3 °F 30.15 in Calm     94 % 0.00 in
07:44 45.3 °F 43.7 °F 30.14 in Calm     94 % 0.00 in
07:49 45.9 °F 44.3 °F 30.14 in Calm     94 % 0.00 in
07:54 46.8 °F 45.4 °F 30.14 in Calm     95 % 0.00 in
07:59 48.1 °F 46.7 °F 30.14 in North 1.0 mph   95 % 0.00 in
08:04 49.2 °F 47.3 °F 30.14 in Calm     93 % 0.00 in
08:09 49.9 °F 47.4 °F 30.15 in Calm     91 % 0.00 in
08:14 50.6 °F 47.8 °F 30.15 in Calm     90 % 0.00 in
08:19 51.1 °F 48.0 °F 30.14 in Calm     89 % 0.00 in
08:24 51.8 °F 48.7 °F 30.14 in Calm     89 % 0.00 in
08:29 52.8 °F 49.3 °F 30.15 in Calm     88 % 0.00 in
08:34 53.2 °F 49.1 °F 30.15 in Calm     86 % 0.00 in
08:39 53.8 °F 50.0 °F 30.14 in Calm     87 % 0.00 in
08:44 54.9 °F 50.8 °F 30.14 in Calm     86 % 0.00 in
08:49 56.1 °F 51.7 °F 30.14 in Calm     85 % 0.00 in
08:54 56.7 °F 51.3 °F 30.14 in Calm     82 % 0.00 in
08:59 56.8 °F 51.4 °F 30.14 in Calm     82 % 0.00 in
09:04 57.3 °F 51.9 °F 30.15 in Calm   0.1 mph 82 % 0.00 in
09:09 57.5 °F 51.7 °F 30.14 in Calm     81 % 0.00 in
09:14 57.9 °F 51.8 °F 30.14 in Calm     80 % 0.00 in
09:19 58.5 °F 52.4 °F 30.14 in Calm     80 % 0.00 in
09:24 59.5 °F 52.3 °F 30.14 in NW 1.2 mph   77 % 0.00 in
09:29 60.1 °F 52.5 °F 30.14 in Calm     76 % 0.00 in
09:34 61.3 °F 52.2 °F 30.14 in Calm     72 % 0.00 in
09:39 61.8 °F 52.3 °F 30.14 in WNW 1.2 mph   71 % 0.00 in
09:44 61.8 °F 51.5 °F 30.14 in Calm     69 % 0.00 in
09:49 62.2 °F 51.9 °F 30.15 in Calm     69 % 0.00 in
09:54 62.4 °F 51.3 °F 30.15 in Calm     67 % 0.00 in
09:59 62.7 °F 51.6 °F 30.15 in Calm     67 % 0.00 in
10:04 63.3 °F 52.2 °F 30.15 in Calm     67 % 0.00 in
10:09 63.8 °F 51.8 °F 30.15 in WNW 2.3 mph 2.3 mph 65 % 0.00 in
10:14 64.1 °F 52.5 °F 30.15 in Calm     66 % 0.00 in
10:19 64.6 °F 52.1 °F 30.15 in Calm     64 % 0.00 in
10:24 64.9 °F 51.6 °F 30.15 in Calm     62 % 0.00 in
10:29 65.2 °F 51.4 °F 30.15 in Calm     61 % 0.00 in
10:34 65.6 °F 51.8 °F 30.15 in Calm     61 % 0.00 in
10:39 65.8 °F 52.0 °F 30.15 in Calm     61 % 0.00 in
10:44 66.3 °F 52.4 °F 30.15 in North 1.2 mph 1.2 mph 61 % 0.00 in
10:49 66.7 °F 51.9 °F 30.14 in WSW 1.2 mph 1.2 mph 59 % 0.00 in
10:54 67.2 °F 53.3 °F 30.14 in Calm     61 % 0.00 in
10:59 67.5 °F 51.7 °F 30.14 in West 3.5 mph 3.5 mph 57 % 0.00 in
11:04 67.6 °F 52.3 °F 30.14 in North 2.3 mph 2.3 mph 58 % 0.00 in
11:09 67.9 °F 52.1 °F 30.14 in SW 2.3 mph 2.3 mph 57 % 0.00 in
11:14 68.0 °F 52.7 °F 30.14 in WSW 2.0 mph 2.0 mph 58 % 0.00 in
11:19 68.3 °F 52.9 °F 30.14 in NW 3.5 mph 3.5 mph 58 % 0.00 in
11:24 68.7 °F 53.3 °F 30.13 in NW 2.3 mph 2.3 mph 58 % 0.00 in
11:29 68.9 °F 53.0 °F 30.13 in NW 1.2 mph 1.2 mph 57 % 0.00 in
11:34 69.2 °F 53.8 °F 30.13 in WNW 1.0 mph 1.0 mph 58 % 0.00 in
11:39 69.6 °F 53.2 °F 30.13 in NW 1.2 mph 1.2 mph 56 % 0.00 in
11:44 69.9 °F 54.0 °F 30.12 in WNW 2.0 mph 2.0 mph 57 % 0.00 in
11:49 70.0 °F 53.6 °F 30.12 in WNW 1.2 mph   56 % 0.00 in
11:54 70.3 °F 54.3 °F 30.11 in North 2.3 mph 2.3 mph 57 % 0.00 in
11:59 70.4 °F 53.5 °F 30.11 in NW 2.3 mph 2.3 mph 55 % 0.00 in
12:04 70.4 °F 54.4 °F 30.11 in NW 3.5 mph 3.5 mph 57 % 0.00 in
12:09 70.7 °F 54.2 °F 30.10 in NW 2.3 mph 2.3 mph 56 % 0.00 in
12:14 70.9 °F 53.9 °F 30.10 in Calm     55 % 0.00 in
12:19 71.1 °F 54.1 °F 30.10 in WSW 3.5 mph 3.5 mph 55 % 0.00 in
12:24 71.0 °F 54.0 °F 30.09 in NW 2.3 mph 2.3 mph 55 % 0.00 in
12:30 71.3 °F 54.3 °F 30.09 in NW 1.2 mph 1.2 mph 55 % 0.00 in
12:35 71.5 °F 54.0 °F 30.09 in NW 2.3 mph 2.3 mph 54 % 0.00 in
12:40 71.9 °F 53.8 °F 30.08 in NW 3.0 mph 3.0 mph 53 % 0.00 in
12:45 71.9 °F 53.3 °F 30.08 in North 2.3 mph   52 % 0.00 in
12:50 72.3 °F 54.7 °F 30.08 in WNW 2.0 mph 2.0 mph 54 % 0.00 in
12:55 72.5 °F 54.9 °F 30.07 in WNW 1.2 mph 1.2 mph 54 % 0.00 in
13:00 72.4 °F 53.8 °F 30.07 in West 2.3 mph 2.3 mph 52 % 0.00 in
13:05 72.4 °F 54.8 °F 30.06 in NW 3.5 mph 3.5 mph 54 % 0.00 in
13:10 72.4 °F 54.3 °F 30.06 in WNW 1.2 mph 1.2 mph 53 % 0.00 in
13:15 72.6 °F 54.0 °F 30.06 in Calm     52 % 0.00 in
13:20 72.6 °F 53.4 °F 30.06 in Calm     51 % 0.00 in
13:25 72.8 °F 54.1 °F 30.06 in NW 2.3 mph 2.3 mph 52 % 0.00 in
13:30 72.9 °F 53.7 °F 30.06 in NW 1.2 mph   51 % 0.00 in
13:35 72.9 °F 53.7 °F 30.05 in NW 1.0 mph 1.0 mph 51 % 0.00 in
13:40 72.8 °F 53.1 °F 30.05 in WNW 1.2 mph 1.2 mph 50 % 0.00 in
13:45 72.8 °F 53.1 °F 30.05 in Calm     50 % 0.00 in
13:50 73.0 °F 53.3 °F 30.05 in Calm     50 % 0.00 in
13:55 73.0 °F 54.9 °F 30.05 in NW 2.3 mph 2.3 mph 53 % 0.00 in
14:00 73.0 °F 53.8 °F 30.04 in Calm     51 % 0.00 in
14:05 73.1 °F 53.9 °F 30.04 in Calm     51 % 0.00 in
14:10 73.2 °F 53.4 °F 30.04 in WNW 1.2 mph 1.2 mph 50 % 0.00 in
14:15 73.2 °F 53.4 °F 30.04 in WNW 1.2 mph 1.2 mph 50 % 0.00 in
14:20 73.5 °F 53.7 °F 30.04 in WNW 1.2 mph   50 % 0.00 in
14:25 73.8 °F 52.9 °F 30.04 in WNW 1.0 mph   48 % 0.00 in
14:30 73.9 °F 53.0 °F 30.04 in Calm     48 % 0.00 in
14:35 73.9 °F 53.0 °F 30.04 in NW 1.2 mph 1.2 mph 48 % 0.00 in
14:40 73.8 °F 52.9 °F 30.04 in NW 1.2 mph   48 % 0.00 in
14:45 74.0 °F 53.6 °F 30.04 in West 1.0 mph   49 % 0.00 in
14:50 74.2 °F 52.1 °F 30.04 in Calm     46 % 0.00 in
14:55 74.2 °F 53.2 °F 30.03 in West 1.2 mph   48 % 0.00 in
15:00 74.0 °F 52.5 °F 30.03 in NW 1.2 mph 1.2 mph 47 % 0.00 in
15:05 74.0 °F 52.5 °F 30.03 in NW 2.3 mph 2.3 mph 47 % 0.00 in
15:10 74.0 °F 52.5 °F 30.03 in WNW 2.0 mph 2.0 mph 47 % 0.00 in
15:15 73.8 °F 52.9 °F 30.03 in WNW 1.2 mph 1.2 mph 48 % 0.00 in
15:20 73.7 °F 52.2 °F 30.03 in WNW 1.2 mph 1.2 mph 47 % 0.00 in
15:25 73.5 °F 52.6 °F 30.03 in NW 1.2 mph 1.2 mph 48 % 0.00 in
15:30 73.5 °F 52.0 °F 30.03 in NW 1.2 mph 1.2 mph 47 % 0.00 in
15:35 73.6 °F 52.7 °F 30.03 in WNW 2.3 mph   48 % 0.00 in
15:40 73.7 °F 52.8 °F 30.03 in NW 3.5 mph 3.5 mph 48 % 0.00 in
15:45 73.7 °F 52.8 °F 30.03 in NW 2.3 mph 2.3 mph 48 % 0.00 in
15:50 73.5 °F 52.0 °F 30.03 in NW 1.2 mph 1.2 mph 47 % 0.00 in
15:55 73.4 °F 52.5 °F 30.03 in WNW 2.3 mph 2.3 mph 48 % 0.00 in
16:00 73.3 °F 53.0 °F 30.03 in NW 1.2 mph 1.3 mph 49 % 0.00 in
16:05 72.9 °F 53.2 °F 30.03 in NW 1.2 mph 1.2 mph 50 % 0.00 in
16:10 72.5 °F 53.9 °F 30.03 in WNW 1.2 mph 1.2 mph 52 % 0.00 in
16:15 72.1 °F 54.5 °F 30.03 in NW 1.2 mph 1.2 mph 54 % 0.00 in
16:20 71.6 °F 54.6 °F 30.03 in NW 1.2 mph 1.2 mph 55 % 0.00 in
16:25 71.2 °F 54.2 °F 30.03 in WNW 1.2 mph 1.2 mph 55 % 0.00 in
16:30 71.0 °F 54.0 °F 30.03 in Calm     55 % 0.00 in
16:35 70.7 °F 54.2 °F 30.03 in Calm     56 % 0.00 in
16:40 70.4 °F 54.0 °F 30.03 in Calm     56 % 0.00 in
16:45 70.2 °F 53.8 °F 30.03 in Calm     56 % 0.00 in
16:50 69.9 °F 53.5 °F 30.03 in Calm     56 % 0.00 in
16:55 69.7 °F 53.3 °F 30.03 in Calm     56 % 0.00 in
17:00 69.5 °F 53.6 °F 30.03 in Calm     57 % 0.00 in
17:05 69.3 °F 53.4 °F 30.04 in Calm     57 % 0.00 in
17:10 68.9 °F 53.0 °F 30.04 in Calm     57 % 0.00 in
17:15 68.4 °F 53.5 °F 30.03 in Calm     59 % 0.00 in
17:20 67.8 °F 53.9 °F 30.03 in Calm     61 % 0.00 in
17:25 67.1 °F 54.1 °F 30.04 in Calm     63 % 0.00 in
17:30 66.4 °F 54.3 °F 30.04 in Calm     65 % 0.00 in
17:35 65.6 °F 53.9 °F 30.04 in Calm     66 % 0.00 in
17:41 65.0 °F 53.8 °F 30.04 in Calm     67 % 0.00 in
17:46 64.7 °F 53.9 °F 30.04 in Calm     68 % 0.00 in
17:51 64.5 °F 54.1 °F 30.04 in Calm     69 % 0.00 in
17:56 64.3 °F 53.9 °F 30.04 in Calm     69 % 0.00 in
18:01 63.8 °F 53.8 °F 30.04 in Calm     70 % 0.00 in
18:06 63.2 °F 53.6 °F 30.04 in Calm     71 % 0.00 in
18:11 62.6 °F 54.2 °F 30.04 in Calm     74 % 0.00 in
18:16 62.3 °F 53.9 °F 30.05 in Calm     74 % 0.00 in
18:21 62.2 °F 54.2 °F 30.05 in Calm     75 % 0.00 in
18:26 62.0 °F 54.0 °F 30.05 in Calm     75 % 0.00 in
18:31 61.6 °F 54.0 °F 30.05 in Calm     76 % 0.00 in
18:36 61.4 °F 53.8 °F 30.05 in Calm     76 % 0.00 in
18:41 61.1 °F 53.8 °F 30.05 in Calm     77 % 0.00 in
18:46 60.6 °F 53.7 °F 30.05 in Calm     78 % 0.00 in
18:51 60.1 °F 53.6 °F 30.05 in Calm     79 % 0.00 in
18:56 59.9 °F 53.4 °F 30.06 in Calm     79 % 0.00 in
19:01 59.9 °F 53.4 °F 30.06 in Calm     79 % 0.00 in
19:06 59.9 °F 53.4 °F 30.06 in Calm     79 % 0.00 in
19:11 59.5 °F 53.0 °F 30.06 in Calm     79 % 0.00 in
19:16 59.1 °F 52.9 °F 30.06 in Calm     80 % 0.00 in
19:21 58.6 °F 52.8 °F 30.06 in Calm     81 % 0.00 in
19:26 58.7 °F 52.2 °F 30.06 in Calm     79 % 0.00 in
19:31 58.3 °F 52.8 °F 30.06 in Calm     82 % 0.00 in
19:36 58.3 °F 52.2 °F 30.06 in Calm     80 % 0.00 in
19:41 58.0 °F 52.2 °F 30.06 in Calm     81 % 0.00 in
19:46 57.8 °F 52.7 °F 30.06 in Calm     83 % 0.00 in
19:51 58.2 °F 52.7 °F 30.06 in Calm     82 % 0.00 in
19:56 58.3 °F 52.5 °F 30.07 in Calm     81 % 0.00 in
20:01 58.3 °F 52.8 °F 30.07 in Calm     82 % 0.00 in
20:06 58.3 °F 52.5 °F 30.07 in Calm     81 % 0.00 in
20:11 57.9 °F 52.1 °F 30.07 in Calm     81 % 0.00 in
20:16 57.6 °F 52.1 °F 30.07 in Calm     82 % 0.00 in
20:21 57.7 °F 52.2 °F 30.07 in Calm     82 % 0.00 in
20:26 57.4 °F 51.9 °F 30.07 in Calm     82 % 0.00 in
20:31 57.1 °F 52.0 °F 30.07 in Calm     83 % 0.00 in
20:36 57.2 °F 52.1 °F 30.07 in Calm     83 % 0.00 in
20:41 57.0 °F 51.9 °F 30.07 in Calm     83 % 0.00 in
20:46 56.6 °F 51.2 °F 30.07 in Calm     82 % 0.00 in
20:51 56.1 °F 51.3 °F 30.08 in Calm     84 % 0.00 in
20:56 55.7 °F 50.9 °F 30.08 in Calm     84 % 0.00 in
21:01 55.6 °F 51.2 °F 30.08 in Calm     85 % 0.00 in
21:06 55.3 °F 50.9 °F 30.08 in Calm     85 % 0.00 in
21:11 54.9 °F 50.5 °F 30.08 in Calm     85 % 0.00 in
21:16 54.6 °F 50.8 °F 30.08 in Calm     87 % 0.00 in
21:22 54.6 °F 50.8 °F 30.08 in Calm     87 % 0.00 in
21:27 54.4 °F 50.6 °F 30.08 in Calm     87 % 0.00 in
21:32 54.3 °F 50.5 °F 30.08 in Calm     87 % 0.00 in
21:37 54.1 °F 50.0 °F 30.08 in Calm     86 % 0.00 in
21:42 53.9 °F 50.1 °F 30.08 in Calm     87 % 0.00 in
21:47 53.9 °F 50.1 °F 30.08 in Calm     87 % 0.00 in
21:52 54.0 °F 50.2 °F 30.08 in Calm     87 % 0.00 in
21:57 53.9 °F 50.1 °F 30.08 in Calm     87 % 0.00 in
22:02 54.1 °F 50.0 °F 30.08 in Calm     86 % 0.00 in
22:07 53.9 °F 49.8 °F 30.08 in Calm     86 % 0.00 in
22:12 53.5 °F 49.4 °F 30.08 in Calm     86 % 0.00 in
22:17 53.2 °F 49.1 °F 30.08 in Calm     86 % 0.00 in
22:22 52.6 °F 48.5 °F 30.08 in Calm     86 % 0.00 in
22:27 52.1 °F 48.3 °F 30.08 in Calm     87 % 0.00 in
22:32 52.0 °F 48.6 °F 30.08 in Calm     88 % 0.00 in
22:37 51.8 °F 48.4 °F 30.08 in Calm     88 % 0.00 in
22:42 51.6 °F 48.5 °F 30.08 in Calm     89 % 0.00 in
22:47 51.3 °F 47.9 °F 30.08 in Calm     88 % 0.00 in
22:52 51.0 °F 47.6 °F 30.08 in Calm     88 % 0.00 in
22:57 50.8 °F 47.7 °F 30.08 in Calm     89 % 0.00 in
23:02 50.7 °F 47.6 °F 30.08 in Calm     89 % 0.00 in
23:07 50.4 °F 47.3 °F 30.08 in Calm     89 % 0.00 in
23:12 49.9 °F 46.8 °F 30.08 in Calm     89 % 0.00 in
23:17 50.1 °F 47.6 °F 30.08 in Calm     91 % 0.00 in
23:22 50.3 °F 47.5 °F 30.08 in Calm     90 % 0.00 in
23:27 50.8 °F 48.3 °F 30.08 in NNW 1.2 mph 1.2 mph 91 % 0.00 in
23:32 51.3 °F 48.5 °F 30.08 in Calm     90 % 0.00 in
23:37 51.6 °F 48.5 °F 30.08 in Calm     89 % 0.00 in
23:42 51.6 °F 48.5 °F 30.08 in Calm     89 % 0.00 in
23:47 51.4 °F 48.0 °F 30.08 in Calm     88 % 0.00 in
23:52 51.2 °F 47.8 °F 30.07 in Calm     88 % 0.00 in
23:57 51.0 °F 47.9 °F 30.07 in Calm     89 % 0.00 in
Park Place, Exeter, Tulare County, California, USA
Compliments of Weather Underground - 2.75 mb